createdAt,value
2024-03-05T00:00:22.821Z,48.50
2024-03-05T00:01:55.098Z,52.67
2024-03-05T00:03:27.441Z,48.10
2024-03-05T00:04:59.305Z,55.00
2024-03-05T00:06:31.194Z,53.47
2024-03-05T00:08:03.842Z,51.10
2024-03-05T00:09:35.894Z,50.20
2024-03-05T00:11:08.801Z,49.77
2024-03-05T00:12:40.759Z,50.03
2024-03-05T00:14:12.551Z,52.90
2024-03-05T00:15:44.407Z,52.00
2024-03-05T00:17:16.218Z,50.80
2024-03-05T00:18:48.089Z,50.37
2024-03-05T00:20:20.403Z,55.80
2024-03-05T00:21:52.568Z,52.00
2024-03-05T00:23:25.109Z,51.37
2024-03-05T00:24:59.636Z,51.63
2024-03-05T00:26:31.468Z,50.60
2024-03-05T00:28:03.438Z,54.90
2024-03-05T00:29:35.212Z,50.60
2024-03-05T00:31:07.036Z,51.20
2024-03-05T00:32:38.949Z,54.23
2024-03-05T00:34:10.837Z,49.53
2024-03-05T00:35:43.211Z,47.90
2024-03-05T00:37:14.971Z,49.40
2024-03-05T00:38:46.707Z,48.33
2024-03-05T00:40:19.634Z,49.70
2024-03-05T00:41:51.509Z,54.67
2024-03-05T00:43:23.602Z,51.13
2024-03-05T00:44:55.370Z,56.17
2024-03-05T00:46:27.273Z,53.90
2024-03-05T00:47:59.120Z,50.60
2024-03-05T00:49:30.926Z,47.23
2024-03-05T00:51:03.448Z,52.03
2024-03-05T00:52:35.522Z,48.67
2024-03-05T00:54:07.814Z,51.87
2024-03-05T00:55:40.223Z,48.60
2024-03-05T00:57:12.948Z,48.20
2024-03-05T00:58:44.789Z,50.33
2024-03-05T01:00:20.641Z,50.40
2024-03-05T01:01:52.522Z,49.37
2024-03-05T01:03:24.358Z,49.10
2024-03-05T01:04:56.213Z,47.57
2024-03-05T01:06:28.103Z,58.20
2024-03-05T01:08:00.286Z,43.77
2024-03-05T01:09:32.127Z,44.77
2024-03-05T01:11:04.158Z,56.77
2024-03-05T01:12:36.052Z,50.13
2024-03-05T01:14:07.845Z,52.37
2024-03-05T01:15:39.594Z,50.87
2024-03-05T01:17:13.472Z,51.37
2024-03-05T01:18:45.232Z,50.10
2024-03-05T01:20:17.482Z,45.83
2024-03-05T01:21:49.396Z,51.27
2024-03-05T01:23:21.773Z,47.40
2024-03-05T01:24:53.586Z,48.20
2024-03-05T01:26:25.315Z,45.73
2024-03-05T01:27:58.968Z,48.50
2024-03-05T01:29:31.714Z,51.87
2024-03-05T01:31:03.702Z,47.37
2024-03-05T01:32:36.840Z,50.60
2024-03-05T01:34:08.617Z,52.63
2024-03-05T01:35:42.115Z,46.20
2024-03-05T01:37:14.281Z,53.60
2024-03-05T01:38:46.069Z,48.73
2024-03-05T01:40:20.390Z,50.63
2024-03-05T01:41:53.507Z,48.23
2024-03-05T01:43:25.464Z,47.80
2024-03-05T01:44:57.365Z,47.63
2024-03-05T01:46:29.605Z,47.50
2024-03-05T01:48:02.137Z,46.50
2024-03-05T01:49:35.183Z,45.10
2024-03-05T01:51:07.401Z,50.70
2024-03-05T01:52:39.662Z,50.73
2024-03-05T01:54:13.641Z,44.47
2024-03-05T01:55:47.811Z,49.80
2024-03-05T01:57:22.856Z,48.37
2024-03-05T01:58:55.796Z,48.90
2024-03-05T02:00:27.774Z,49.57
2024-03-05T02:01:59.703Z,50.77
2024-03-05T02:03:33.179Z,48.03
2024-03-05T02:05:06.589Z,45.00
2024-03-05T02:06:41.998Z,51.13
2024-03-05T02:08:18.170Z,43.97
2024-03-05T02:09:53.267Z,46.93
2024-03-05T02:11:25.512Z,53.10
2024-03-05T02:12:58.231Z,54.87
2024-03-05T02:14:31.824Z,50.00
2024-03-05T02:16:03.852Z,51.43
2024-03-05T02:17:35.659Z,49.07
2024-03-05T02:19:08.852Z,45.30
2024-03-05T02:20:40.741Z,53.73
2024-03-05T02:22:12.677Z,47.60
2024-03-05T02:23:44.488Z,51.90
2024-03-05T02:25:18.652Z,51.73
2024-03-05T02:26:51.704Z,46.57
2024-03-05T02:28:24.052Z,47.47
2024-03-05T02:29:56.253Z,52.90
2024-03-05T02:31:28.861Z,49.77
2024-03-05T02:33:01.683Z,49.83
2024-03-05T02:34:33.985Z,52.37
2024-03-05T02:36:08.057Z,50.50
2024-03-05T02:37:40.552Z,45.30
2024-03-05T02:39:13.177Z,57.30
2024-03-05T02:40:45.292Z,48.77
2024-03-05T02:42:17.271Z,46.60
2024-03-05T02:43:49.189Z,52.07
2024-03-05T02:45:21.020Z,49.10
2024-03-05T02:46:52.893Z,55.87
2024-03-05T02:48:25.079Z,52.80
2024-03-05T02:49:57.243Z,46.40
2024-03-05T02:51:29.903Z,45.73
2024-03-05T02:53:01.815Z,49.40
2024-03-05T02:54:34.823Z,45.17
2024-03-05T02:56:07.249Z,50.90
2024-03-05T02:57:42.469Z,42.23
2024-03-05T02:59:18.423Z,49.50
2024-03-05T03:00:50.932Z,49.37
2024-03-05T03:02:22.682Z,46.80
2024-03-05T03:03:54.549Z,55.27
2024-03-05T03:05:26.667Z,47.97
2024-03-05T03:06:58.404Z,48.93
2024-03-05T03:08:30.743Z,50.70
2024-03-05T03:10:02.509Z,45.73
2024-03-05T03:11:34.986Z,48.70
2024-03-05T03:13:06.804Z,46.40
2024-03-05T03:14:41.392Z,47.00
2024-03-05T03:16:14.706Z,49.07
2024-03-05T03:17:47.207Z,50.47
2024-03-05T03:19:19.083Z,44.90
2024-03-05T03:20:50.851Z,49.90
2024-03-05T03:22:22.711Z,48.10
2024-03-05T03:23:55.625Z,49.80
2024-03-05T03:25:27.427Z,52.80
2024-03-05T03:26:59.233Z,50.67
2024-03-05T03:28:31.065Z,47.07
2024-03-05T03:30:05.233Z,48.03
2024-03-05T03:31:37.064Z,51.83
2024-03-05T03:33:09.684Z,51.70
2024-03-05T03:34:41.823Z,50.00
2024-03-05T03:36:25.246Z,50.83
2024-03-05T03:37:57.037Z,49.90
2024-03-05T03:39:29.040Z,51.20
2024-03-05T03:41:00.859Z,54.33
2024-03-05T03:42:32.704Z,45.63
2024-03-05T03:44:04.569Z,49.40
2024-03-05T03:45:36.557Z,51.83
2024-03-05T03:47:08.469Z,48.57
2024-03-05T03:48:40.245Z,55.27
2024-03-05T03:50:12.251Z,48.10
2024-03-05T03:51:44.250Z,51.60
2024-03-05T03:53:16.025Z,51.00
2024-03-05T03:54:49.192Z,48.07
2024-03-05T03:56:21.777Z,50.83
2024-03-05T03:57:54.360Z,46.70
2024-03-05T03:59:26.377Z,52.53
2024-03-05T04:01:00.403Z,48.37
2024-03-05T04:02:32.250Z,52.73
2024-03-05T04:04:04.163Z,48.80
2024-03-05T04:05:35.924Z,54.73
2024-03-05T04:07:07.692Z,46.20
2024-03-05T04:08:39.730Z,50.03
2024-03-05T04:10:14.477Z,51.10
2024-03-05T04:11:47.313Z,50.10
2024-03-05T04:13:19.243Z,51.30
2024-03-05T04:14:53.036Z,54.93
2024-03-05T04:16:25.608Z,54.10
2024-03-05T04:17:58.849Z,51.17
2024-03-05T04:19:31.872Z,50.67
2024-03-05T04:21:04.176Z,49.77
2024-03-05T04:22:38.930Z,50.20
2024-03-05T04:24:16.846Z,51.30
2024-03-05T04:25:48.789Z,54.47
2024-03-05T04:27:21.665Z,50.47
2024-03-05T04:28:55.945Z,52.80
2024-03-05T04:30:27.984Z,51.90
2024-03-05T04:32:12.996Z,66.87
2024-03-05T04:33:44.831Z,54.27
2024-03-05T04:35:17.435Z,52.77
2024-03-05T04:36:53.789Z,58.10
2024-03-05T04:38:27.303Z,52.20
2024-03-05T04:39:59.144Z,49.33
2024-03-05T04:41:30.897Z,52.47
2024-03-05T04:43:02.832Z,54.10
2024-03-05T04:44:35.461Z,55.87
2024-03-05T04:46:07.414Z,55.13
2024-03-05T04:47:39.202Z,54.83
2024-03-05T04:49:10.982Z,57.20
2024-03-05T04:50:43.227Z,52.00
2024-03-05T04:52:18.006Z,53.30
2024-03-05T04:53:50.810Z,54.67
2024-03-05T04:55:23.699Z,55.87
2024-03-05T04:56:55.738Z,56.23
2024-03-05T04:58:27.548Z,51.47
2024-03-05T04:59:59.673Z,54.83
2024-03-05T05:01:31.488Z,54.90
2024-03-05T05:03:03.380Z,50.53
2024-03-05T05:04:38.743Z,53.33
2024-03-05T05:06:11.730Z,53.70
2024-03-05T05:07:45.077Z,54.50
2024-03-05T05:09:16.895Z,48.53
2024-03-05T05:10:49.078Z,65.47
2024-03-05T05:12:20.905Z,56.20
2024-03-05T05:13:52.805Z,53.60
2024-03-05T05:15:24.829Z,49.90
2024-03-05T05:16:57.857Z,51.87
2024-03-05T05:18:29.797Z,51.77
2024-03-05T05:20:02.708Z,52.17
2024-03-05T05:21:34.780Z,55.17
2024-03-05T05:23:06.546Z,50.80
2024-03-05T05:24:38.678Z,56.87
2024-03-05T05:26:10.455Z,57.33
2024-03-05T05:27:42.546Z,54.70
2024-03-05T05:29:23.515Z,54.77
2024-03-05T05:31:04.775Z,54.40
2024-03-05T05:32:36.594Z,54.20
2024-03-05T05:34:09.234Z,52.00
2024-03-05T05:35:41.195Z,66.30
2024-03-05T05:37:13.045Z,51.97
2024-03-05T05:38:45.263Z,57.93
2024-03-05T05:40:20.511Z,51.97
2024-03-05T05:41:54.083Z,62.43
2024-03-05T05:43:25.868Z,57.30
2024-03-05T05:44:57.854Z,52.90
2024-03-05T05:46:29.700Z,54.70
2024-03-05T05:48:01.633Z,52.17
2024-03-05T05:49:33.718Z,50.77
2024-03-05T05:51:11.283Z,52.53
2024-03-05T05:52:44.001Z,61.80
2024-03-05T05:54:19.090Z,53.93
2024-03-05T05:55:52.799Z,56.67
2024-03-05T05:57:24.703Z,58.50
2024-03-05T05:58:56.496Z,55.17
2024-03-05T06:00:37.803Z,56.93
2024-03-05T06:02:12.380Z,66.70
2024-03-05T06:03:47.256Z,59.10
2024-03-05T06:05:19.358Z,56.67
2024-03-05T06:06:52.400Z,56.50
2024-03-05T06:08:24.200Z,56.53
2024-03-05T06:09:55.996Z,55.90
2024-03-05T06:11:27.953Z,56.00
2024-03-05T06:12:59.857Z,55.70
2024-03-05T06:14:32.579Z,56.47
2024-03-05T06:16:08.627Z,55.70
2024-03-05T06:17:43.997Z,54.67
2024-03-05T06:19:16.272Z,56.60
2024-03-05T06:20:49.249Z,54.97
2024-03-05T06:22:27.137Z,54.40
2024-03-05T06:24:05.914Z,53.40
2024-03-05T06:25:38.590Z,53.60
2024-03-05T06:27:10.445Z,50.63
2024-03-05T06:28:43.297Z,54.13
2024-03-05T06:30:22.495Z,53.37
2024-03-05T06:31:54.333Z,51.43
2024-03-05T06:33:26.122Z,51.00
2024-03-05T06:34:58.263Z,51.73
2024-03-05T06:36:31.710Z,50.30
2024-03-05T06:38:04.451Z,58.07
2024-03-05T06:39:43.280Z,56.20
2024-03-05T06:41:16.842Z,55.37
2024-03-05T06:43:06.288Z,49.67
2024-03-05T06:44:38.257Z,55.00
2024-03-05T06:46:11.176Z,50.00
2024-03-05T06:48:07.140Z,51.90
2024-03-05T06:49:44.431Z,56.40
2024-03-05T06:51:32.425Z,50.87
2024-03-05T06:53:23.884Z,51.93
2024-03-05T06:55:14.257Z,50.97
2024-03-05T06:56:46.253Z,86.10
2024-03-05T06:58:18.313Z,53.40
2024-03-05T06:59:50.789Z,52.97
2024-03-05T07:01:23.347Z,48.93
2024-03-05T07:02:55.228Z,53.27
2024-03-05T07:04:28.280Z,46.47
2024-03-05T07:06:00.069Z,52.43
2024-03-05T07:07:34.222Z,48.17
2024-03-05T07:09:06.072Z,47.00
2024-03-05T07:10:38.262Z,51.57
2024-03-05T07:12:10.069Z,49.00
2024-03-05T07:13:45.290Z,51.90
2024-03-05T07:15:18.698Z,46.97
2024-03-05T07:16:50.563Z,53.57
2024-03-05T07:18:22.623Z,55.00
2024-03-05T07:19:54.429Z,51.73
2024-03-05T07:21:26.527Z,51.10
2024-03-05T07:22:59.121Z,56.17
2024-03-05T07:24:31.240Z,47.33
2024-03-05T07:26:06.968Z,51.30
2024-03-05T07:27:40.792Z,48.00
2024-03-05T07:29:12.860Z,49.57
2024-03-05T07:30:44.670Z,48.87
2024-03-05T07:32:17.204Z,50.80
2024-03-05T07:33:52.826Z,53.80
2024-03-05T07:35:25.489Z,50.10
2024-03-05T07:36:57.447Z,51.60
2024-03-05T07:38:29.268Z,49.83
2024-03-05T07:40:10.472Z,49.63
2024-03-05T07:41:42.453Z,49.10
2024-03-05T07:43:14.674Z,52.33
2024-03-05T07:44:46.425Z,45.27
2024-03-05T07:46:20.979Z,53.43
2024-03-05T07:47:52.877Z,45.50
2024-03-05T07:49:24.685Z,48.83
2024-03-05T07:50:56.934Z,60.83
2024-03-05T07:52:28.889Z,47.83
2024-03-05T07:54:00.681Z,52.97
2024-03-05T07:55:45.406Z,52.07
2024-03-05T07:57:18.529Z,47.63
2024-03-05T07:58:50.402Z,43.50
2024-03-05T08:00:23.153Z,46.43
2024-03-05T08:01:56.705Z,47.50
2024-03-05T08:03:28.533Z,46.70
2024-03-05T08:05:01.138Z,48.70
2024-03-05T08:06:33.027Z,49.40
2024-03-05T08:08:05.677Z,52.23
2024-03-05T08:09:37.807Z,46.77
2024-03-05T08:11:09.737Z,50.63
2024-03-05T08:12:45.192Z,48.20
2024-03-05T08:14:16.976Z,48.17
2024-03-05T08:15:48.731Z,50.00
2024-03-05T08:17:20.613Z,47.73
2024-03-05T08:18:53.938Z,48.60
2024-03-05T08:20:27.297Z,53.37
2024-03-05T08:21:59.121Z,46.17
2024-03-05T08:23:31.170Z,49.10
2024-03-05T08:25:10.561Z,44.70
2024-03-05T08:26:42.311Z,48.53
2024-03-05T08:28:14.210Z,47.87
2024-03-05T08:29:46.206Z,53.80
2024-03-05T08:31:18.049Z,51.10
2024-03-05T08:32:51.497Z,44.37
2024-03-05T08:34:25.003Z,46.90
2024-03-05T08:35:57.463Z,46.20
2024-03-05T08:37:29.431Z,47.37
2024-03-05T08:39:01.271Z,49.90
2024-03-05T08:40:34.528Z,49.80
2024-03-05T08:42:06.584Z,51.40
2024-03-05T08:43:38.373Z,46.63
2024-03-05T08:45:11.189Z,44.77
2024-03-05T08:46:43.082Z,48.03
2024-03-05T08:48:14.961Z,44.40
2024-03-05T08:49:50.218Z,48.50
2024-03-05T08:51:22.039Z,44.27
2024-03-05T08:52:53.928Z,48.83
2024-03-05T08:54:26.930Z,47.53
2024-03-05T08:55:58.704Z,46.70
2024-03-05T08:57:30.534Z,48.67
2024-03-05T08:59:02.394Z,46.70
2024-03-05T09:00:42.044Z,44.90
2024-03-05T09:02:15.379Z,44.50
2024-03-05T09:03:47.233Z,46.57
2024-03-05T09:05:18.985Z,47.37
2024-03-05T09:06:51.246Z,49.20
2024-03-05T09:08:23.044Z,49.03
2024-03-05T09:09:54.864Z,49.37
2024-03-05T09:11:26.753Z,50.70
2024-03-05T09:12:59.525Z,47.60
2024-03-05T09:14:31.541Z,47.07
2024-03-05T09:16:03.576Z,45.17
2024-03-05T09:17:35.440Z,48.63
2024-03-05T09:19:07.575Z,66.20
2024-03-05T09:20:39.348Z,45.63
2024-03-05T09:22:11.353Z,49.47
2024-03-05T09:23:43.143Z,43.87
2024-03-05T09:25:16.900Z,47.90
2024-03-05T09:26:48.715Z,48.07
2024-03-05T09:28:20.727Z,46.77
2024-03-05T09:29:52.575Z,49.03
2024-03-05T09:31:24.391Z,47.03
2024-03-05T09:32:57.544Z,53.73
2024-03-05T09:34:29.387Z,47.10
2024-03-05T09:36:05.598Z,47.27
2024-03-05T09:37:37.982Z,48.27
2024-03-05T09:39:10.594Z,48.13
2024-03-05T09:40:43.010Z,46.57
2024-03-05T09:42:16.658Z,48.83
2024-03-05T09:43:50.107Z,53.60
2024-03-05T09:45:24.168Z,51.37
2024-03-05T09:46:56.071Z,49.73
2024-03-05T09:48:27.985Z,50.97
2024-03-05T09:50:02.434Z,48.00
2024-03-05T09:51:35.865Z,46.00
2024-03-05T09:53:08.613Z,46.33
2024-03-05T09:54:40.664Z,43.97
2024-03-05T09:56:16.816Z,45.17
2024-03-05T09:57:55.561Z,49.43
2024-03-05T09:59:27.358Z,44.67
2024-03-05T10:01:01.884Z,46.23
2024-03-05T10:02:34.414Z,43.03
2024-03-05T10:04:08.937Z,44.63
2024-03-05T10:05:41.551Z,43.50
2024-03-05T10:07:27.532Z,47.57
2024-03-05T10:08:59.376Z,41.17
2024-03-05T10:10:34.620Z,53.83
2024-03-05T10:12:06.711Z,42.27
2024-03-05T10:13:38.893Z,47.33
2024-03-05T10:15:19.767Z,46.77
2024-03-05T10:17:03.066Z,44.60
2024-03-05T10:18:35.671Z,44.23
2024-03-05T10:20:11.127Z,43.37
2024-03-05T10:21:44.182Z,44.87
2024-03-05T10:23:16.794Z,45.40
2024-03-05T10:24:49.339Z,49.10
2024-03-05T10:26:25.443Z,42.23
2024-03-05T10:28:03.400Z,43.63
2024-03-05T10:29:36.282Z,46.57
2024-03-05T10:31:08.071Z,43.53
2024-03-05T10:32:41.313Z,41.23
2024-03-05T10:34:16.990Z,50.07
2024-03-05T10:35:51.802Z,46.97
2024-03-05T10:37:23.592Z,43.30
2024-03-05T10:38:56.072Z,39.33
2024-03-05T10:40:35.756Z,45.37
2024-03-05T10:42:12.801Z,44.20
2024-03-05T10:43:45.326Z,41.17
2024-03-05T10:45:18.815Z,45.37
2024-03-05T10:46:53.652Z,43.67
2024-03-05T10:48:26.998Z,39.73
2024-03-05T10:50:03.054Z,44.70
2024-03-05T10:51:42.372Z,46.30
2024-03-05T10:53:17.478Z,37.67
2024-03-05T10:54:50.313Z,44.20
2024-03-05T10:56:29.108Z,37.40
2024-03-05T10:58:20.980Z,38.77
2024-03-05T10:59:54.960Z,40.30
2024-03-05T11:01:32.740Z,38.07
2024-03-05T11:03:09.685Z,36.47
2024-03-05T11:04:43.615Z,34.37
2024-03-05T11:06:18.153Z,36.17
2024-03-05T11:07:50.662Z,38.43
2024-03-05T11:09:24.110Z,35.20
2024-03-05T11:11:03.136Z,33.43
2024-03-05T11:12:35.092Z,33.57
2024-03-05T11:14:08.280Z,30.60
2024-03-05T11:15:40.362Z,32.27
2024-03-05T11:17:13.090Z,32.43
2024-03-05T11:18:47.939Z,33.10
2024-03-05T11:20:41.504Z,32.67
2024-03-05T11:22:21.718Z,32.80
2024-03-05T11:23:53.563Z,29.23
2024-03-05T11:25:33.796Z,25.93
2024-03-05T11:27:13.162Z,27.23
2024-03-05T11:28:45.155Z,32.33
2024-03-05T11:30:20.641Z,28.77
2024-03-05T11:31:53.944Z,27.57
2024-03-05T11:33:27.873Z,28.00
2024-03-05T11:35:04.766Z,29.40
2024-03-05T11:36:37.376Z,28.37
2024-03-05T11:38:11.750Z,29.20
2024-03-05T11:39:44.602Z,31.27
2024-03-05T11:41:26.519Z,28.93
2024-03-05T11:42:58.734Z,27.03
2024-03-05T11:44:35.694Z,26.37
2024-03-05T11:46:09.090Z,25.93
2024-03-05T11:47:43.063Z,25.70
2024-03-05T11:49:16.052Z,26.80
2024-03-05T11:50:55.772Z,25.37
2024-03-05T11:52:28.802Z,26.37
2024-03-05T11:54:00.829Z,22.53
2024-03-05T11:55:33.353Z,25.60
2024-03-05T11:57:05.283Z,24.23
2024-03-05T11:58:39.025Z,29.83
2024-03-05T12:00:17.666Z,21.73
2024-03-05T12:01:49.798Z,23.73
2024-03-05T12:03:21.708Z,21.70
2024-03-05T12:04:54.746Z,22.63
2024-03-05T12:06:26.620Z,27.60
2024-03-05T12:08:03.156Z,24.17
2024-03-05T12:09:38.865Z,23.90
2024-03-05T12:11:10.922Z,25.87
2024-03-05T12:12:42.819Z,23.63
2024-03-05T12:14:16.146Z,20.83
2024-03-05T12:15:48.001Z,22.50
2024-03-05T12:17:21.139Z,28.43
2024-03-05T12:18:59.672Z,24.30
2024-03-05T12:20:32.248Z,24.03
2024-03-05T12:22:04.957Z,21.03
2024-03-05T12:23:41.928Z,23.60
2024-03-05T12:25:15.328Z,33.33
2024-03-05T12:26:48.574Z,40.20
2024-03-05T12:28:20.408Z,53.90
2024-03-05T12:29:53.176Z,48.93
2024-03-05T12:31:25.485Z,39.97
2024-03-05T12:32:57.448Z,36.93
2024-03-05T12:34:29.720Z,42.13
2024-03-05T12:36:01.506Z,37.87
2024-03-05T12:37:35.436Z,35.37
2024-03-05T12:39:11.241Z,33.80
2024-03-05T12:40:43.095Z,35.07
2024-03-05T12:42:24.210Z,30.60
2024-03-05T12:43:56.860Z,31.10
2024-03-05T12:45:28.961Z,32.27
2024-03-05T12:47:20.931Z,27.30
2024-03-05T12:48:58.611Z,28.63
2024-03-05T12:50:33.797Z,24.10
2024-03-05T12:52:06.601Z,27.10
2024-03-05T12:53:38.782Z,24.87
2024-03-05T12:55:13.857Z,27.40
2024-03-05T12:56:46.503Z,22.50
2024-03-05T12:58:18.592Z,23.73
2024-03-05T12:59:50.402Z,19.90
2024-03-05T13:01:22.376Z,23.13
2024-03-05T13:02:54.581Z,27.53
2024-03-05T13:04:27.298Z,25.70
2024-03-05T13:05:59.149Z,22.73
2024-03-05T13:07:31.558Z,20.23
2024-03-05T13:09:06.421Z,21.10
2024-03-05T13:10:38.344Z,19.37
2024-03-05T13:12:10.254Z,20.23
2024-03-05T13:13:42.069Z,21.10
2024-03-05T13:15:15.477Z,21.60
2024-03-05T13:16:47.453Z,20.00
2024-03-05T13:18:19.429Z,19.60
2024-03-05T13:19:51.372Z,17.67
2024-03-05T13:21:23.291Z,18.80
2024-03-05T13:22:55.387Z,17.70
2024-03-05T13:24:27.463Z,15.93
2024-03-05T13:25:59.473Z,19.77
2024-03-05T13:27:31.530Z,20.00
2024-03-05T13:29:05.642Z,14.50
2024-03-05T13:30:37.474Z,16.03
2024-03-05T13:32:09.465Z,16.93
2024-03-05T13:33:41.268Z,16.10
2024-03-05T13:35:14.348Z,16.70
2024-03-05T13:36:47.751Z,17.43
2024-03-05T13:38:19.545Z,16.00
2024-03-05T13:39:51.367Z,18.43
2024-03-05T13:41:29.213Z,13.77
2024-03-05T13:43:01.709Z,12.97
2024-03-05T13:44:33.634Z,14.67
2024-03-05T13:46:05.446Z,14.50
2024-03-05T13:47:39.808Z,14.90
2024-03-05T13:49:12.403Z,17.53
2024-03-05T13:50:53.015Z,12.77
2024-03-05T13:52:26.865Z,15.83
2024-03-05T13:54:03.966Z,14.27
2024-03-05T13:55:35.755Z,13.67
2024-03-05T13:57:08.802Z,14.03
2024-03-05T13:58:40.930Z,16.07
2024-03-05T14:00:20.306Z,13.73
2024-03-05T14:01:52.158Z,14.53
2024-03-05T14:03:24.170Z,19.03
2024-03-05T14:04:56.055Z,14.10
2024-03-05T14:06:29.265Z,15.80
2024-03-05T14:08:01.459Z,19.27
2024-03-05T14:09:33.303Z,13.77
2024-03-05T14:11:08.698Z,13.23
2024-03-05T14:12:41.136Z,13.90
2024-03-05T14:14:21.911Z,13.37
2024-03-05T14:15:55.142Z,13.03
2024-03-05T14:17:27.000Z,13.03
2024-03-05T14:18:59.745Z,13.70
2024-03-05T14:20:33.381Z,13.77
2024-03-05T14:22:05.881Z,13.07
2024-03-05T14:23:41.535Z,12.40
2024-03-05T14:25:13.750Z,10.53
2024-03-05T14:26:45.529Z,13.37
2024-03-05T14:28:17.610Z,12.10
2024-03-05T14:29:49.510Z,10.77
2024-03-05T14:31:22.064Z,14.83
2024-03-05T14:32:58.872Z,10.10
2024-03-05T14:34:30.816Z,10.20
2024-03-05T14:36:02.898Z,12.43
2024-03-05T14:37:34.760Z,11.10
2024-03-05T14:39:09.425Z,10.60
2024-03-05T14:40:47.114Z,11.03
2024-03-05T14:42:18.969Z,12.10
2024-03-05T14:43:51.463Z,10.63
2024-03-05T14:45:23.565Z,13.43
2024-03-05T14:46:55.622Z,10.53
2024-03-05T14:48:27.979Z,10.77
2024-03-05T14:49:59.923Z,10.80
2024-03-05T14:51:33.912Z,12.33
2024-03-05T14:53:06.302Z,9.23
2024-03-05T14:54:40.681Z,9.63
2024-03-05T14:56:12.499Z,8.17
2024-03-05T14:57:45.786Z,7.50
2024-03-05T14:59:17.772Z,8.07
2024-03-05T15:00:49.662Z,9.47
2024-03-05T15:02:21.918Z,11.03
2024-03-05T15:03:53.824Z,7.70
2024-03-05T15:05:26.982Z,6.93
2024-03-05T15:06:58.843Z,10.80
2024-03-05T15:08:30.628Z,10.90
2024-03-05T15:10:08.266Z,7.20
2024-03-05T15:11:40.097Z,10.57
2024-03-05T15:13:12.073Z,14.23
2024-03-05T15:14:44.132Z,6.60
2024-03-05T15:16:15.947Z,6.53
2024-03-05T15:17:49.237Z,9.70
2024-03-05T15:19:21.071Z,6.77
2024-03-05T15:20:52.891Z,8.20
2024-03-05T15:22:24.723Z,7.10
2024-03-05T15:23:56.995Z,7.53
2024-03-05T15:25:28.934Z,4.77
2024-03-05T15:27:05.414Z,5.53
2024-03-05T15:28:38.513Z,6.20
2024-03-05T15:30:15.286Z,6.10
2024-03-05T15:31:47.139Z,5.10
2024-03-05T15:33:18.961Z,5.40
2024-03-05T15:34:50.813Z,10.10
2024-03-05T15:36:22.613Z,5.40
2024-03-05T15:37:54.858Z,4.93
2024-03-05T15:39:26.729Z,6.10
2024-03-05T15:40:58.848Z,4.90
2024-03-05T15:42:31.544Z,6.40
2024-03-05T15:44:05.007Z,5.67
2024-03-05T15:45:39.010Z,5.23
2024-03-05T15:47:14.259Z,5.37
2024-03-05T15:48:46.045Z,6.10
2024-03-05T15:50:19.527Z,5.37
2024-03-05T15:51:51.342Z,5.60
2024-03-05T15:53:25.621Z,4.43
2024-03-05T15:54:57.352Z,7.17
2024-03-05T15:56:58.430Z,5.63
2024-03-05T15:58:42.437Z,5.50
2024-03-05T16:00:17.268Z,5.50
2024-03-05T16:01:49.556Z,8.67
2024-03-05T16:03:22.458Z,7.00
2024-03-05T16:05:13.715Z,6.57
2024-03-05T16:06:51.104Z,5.30
2024-03-05T16:08:24.973Z,6.47
2024-03-05T16:09:59.739Z,10.30
2024-03-05T16:11:32.388Z,6.43
2024-03-05T16:13:06.032Z,8.70
2024-03-05T16:14:41.484Z,11.20
2024-03-05T16:16:16.179Z,7.80
2024-03-05T16:17:48.072Z,9.67
2024-03-05T16:19:21.757Z,10.57
2024-03-05T16:20:53.793Z,9.17
2024-03-05T16:22:25.791Z,8.47
2024-03-05T16:23:57.581Z,9.63
2024-03-05T16:25:29.938Z,9.03
2024-03-05T16:27:01.719Z,9.20
2024-03-05T16:28:38.528Z,10.43
2024-03-05T16:30:10.969Z,15.20
2024-03-05T16:31:42.965Z,10.33
2024-03-05T16:33:16.060Z,8.40
2024-03-05T16:34:48.010Z,10.03
2024-03-05T16:36:20.309Z,13.03
2024-03-05T16:37:52.850Z,14.33
2024-03-05T16:39:24.684Z,11.93
2024-03-05T16:40:57.697Z,10.33
2024-03-05T16:42:29.791Z,13.63
2024-03-05T16:44:03.260Z,8.77
2024-03-05T16:45:37.009Z,9.43
2024-03-05T16:47:08.969Z,10.23
2024-03-05T16:48:40.862Z,11.40
2024-03-05T16:50:14.301Z,9.47
2024-03-05T16:51:46.105Z,9.33
2024-03-05T16:53:18.185Z,8.33
2024-03-05T16:54:50.016Z,10.60
2024-03-05T16:56:22.864Z,9.37
2024-03-05T16:57:57.456Z,10.80
2024-03-05T16:59:30.306Z,13.23
2024-03-05T17:01:07.616Z,10.70
2024-03-05T17:02:50.027Z,9.93
2024-03-05T17:04:24.729Z,9.67
2024-03-05T17:05:58.229Z,11.83
2024-03-05T17:07:32.908Z,11.37
2024-03-05T17:09:08.395Z,9.50
2024-03-05T17:10:40.823Z,10.70
2024-03-05T17:12:13.759Z,9.93
2024-03-05T17:13:49.132Z,12.00
2024-03-05T17:15:21.566Z,9.50
2024-03-05T17:16:58.016Z,8.90
2024-03-05T17:18:32.819Z,8.63
2024-03-05T17:20:09.575Z,10.40
2024-03-05T17:21:41.873Z,9.70
2024-03-05T17:23:21.309Z,11.20
2024-03-05T17:24:58.631Z,10.10
2024-03-05T17:26:31.507Z,10.67
2024-03-05T17:28:05.513Z,11.23
2024-03-05T17:29:37.320Z,9.70
2024-03-05T17:31:09.628Z,10.97
2024-03-05T17:32:42.585Z,8.50
2024-03-05T17:34:14.438Z,11.10
2024-03-05T17:35:46.355Z,10.13
2024-03-05T17:37:18.553Z,11.00
2024-03-05T17:38:50.521Z,8.70
2024-03-05T17:40:22.904Z,11.13
2024-03-05T17:41:54.949Z,13.00
2024-03-05T17:43:26.779Z,11.30
2024-03-05T17:44:58.661Z,12.60
2024-03-05T17:46:30.610Z,11.00
2024-03-05T17:48:07.271Z,10.23
2024-03-05T17:49:40.082Z,12.07
2024-03-05T17:51:11.995Z,13.30
2024-03-05T17:52:48.736Z,12.00
2024-03-05T17:54:20.625Z,15.33
2024-03-05T17:55:53.645Z,13.50
2024-03-05T17:57:25.478Z,13.80
2024-03-05T17:58:57.562Z,10.83
2024-03-05T18:00:41.723Z,11.07
2024-03-05T18:02:16.414Z,10.30
2024-03-05T18:03:48.417Z,23.40
2024-03-05T18:05:20.471Z,10.00
2024-03-05T18:06:52.519Z,10.50
2024-03-05T18:08:24.462Z,12.63
2024-03-05T18:09:56.336Z,11.53
2024-03-05T18:11:29.444Z,15.87
2024-03-05T18:13:01.369Z,17.30
2024-03-05T18:14:33.774Z,12.03
2024-03-05T18:16:06.778Z,15.80
2024-03-05T18:17:41.797Z,11.73
2024-03-05T18:19:13.866Z,13.10
2024-03-05T18:20:46.410Z,14.50
2024-03-05T18:22:19.549Z,13.20
2024-03-05T18:23:51.420Z,14.90
2024-03-05T18:25:23.242Z,14.00
2024-03-05T18:26:55.050Z,12.93
2024-03-05T18:28:27.109Z,11.93
2024-03-05T18:29:58.949Z,13.27
2024-03-05T18:31:34.119Z,16.00
2024-03-05T18:33:08.402Z,14.57
2024-03-05T18:34:43.778Z,14.80
2024-03-05T18:36:16.929Z,12.77
2024-03-05T18:37:49.522Z,13.53
2024-03-05T18:39:23.885Z,12.63
2024-03-05T18:41:01.996Z,12.00
2024-03-05T18:42:34.073Z,11.10
2024-03-05T18:44:06.312Z,16.70
2024-03-05T18:45:38.652Z,14.50
2024-03-05T18:47:11.223Z,13.40
2024-03-05T18:48:43.049Z,10.83
2024-03-05T18:50:15.834Z,13.83
2024-03-05T18:51:48.060Z,14.87
2024-03-05T18:53:21.913Z,12.33
2024-03-05T18:54:55.673Z,13.37
2024-03-05T18:56:31.002Z,11.13
2024-03-05T18:58:08.386Z,13.17
2024-03-05T18:59:40.175Z,12.70
2024-03-05T19:01:15.265Z,10.80
2024-03-05T19:02:52.172Z,11.67
2024-03-05T19:04:24.050Z,11.30
2024-03-05T19:05:55.853Z,11.47
2024-03-05T19:07:30.066Z,11.03
2024-03-05T19:09:05.429Z,11.57
2024-03-05T19:10:38.335Z,10.10
2024-03-05T19:12:12.182Z,13.27
2024-03-05T19:13:44.088Z,12.40
2024-03-05T19:15:18.537Z,12.67
2024-03-05T19:16:50.753Z,11.10
2024-03-05T19:18:22.667Z,11.57
2024-03-05T19:19:54.713Z,14.23
2024-03-05T19:21:27.349Z,11.03
2024-03-05T19:22:59.489Z,10.63
2024-03-05T19:24:32.399Z,10.70
2024-03-05T19:26:04.574Z,12.40
2024-03-05T19:27:36.943Z,11.83
2024-03-05T19:29:08.960Z,12.43
2024-03-05T19:30:42.197Z,13.60
2024-03-05T19:32:14.122Z,11.97
2024-03-05T19:33:45.964Z,11.30
2024-03-05T19:35:18.749Z,11.07
2024-03-05T19:36:53.235Z,11.53
2024-03-05T19:38:25.321Z,13.77
2024-03-05T19:39:57.106Z,11.93
2024-03-05T19:41:28.892Z,13.90
2024-03-05T19:43:00.993Z,11.97
2024-03-05T19:44:33.618Z,10.37
2024-03-05T19:46:06.280Z,11.73
2024-03-05T19:47:38.666Z,11.43
2024-03-05T19:49:10.681Z,11.10
2024-03-05T19:50:42.555Z,12.63
2024-03-05T19:52:16.608Z,12.70
2024-03-05T19:53:49.373Z,11.90
2024-03-05T19:55:23.788Z,12.10
2024-03-05T19:56:56.923Z,16.97
2024-03-05T19:58:29.294Z,12.43
2024-03-05T20:00:03.245Z,13.13
2024-03-05T20:01:46.950Z,11.37
2024-03-05T20:03:18.809Z,11.03
2024-03-05T20:04:52.882Z,12.73
2024-03-05T20:06:24.699Z,13.97